Flight Track Log - Related Links

Times and Time Zones

All times are in EDT time to prevent confusion due to time zone crossing. See the N605PR flight status page for this flight to view local times or setup timezone preferences in your user account.


Time Position Orientation Groundspeed Altitude Reporting Facility
EDT Latitude Longitude Course Direction KTS MPH feet Rate Location/Type
Tue 10:37:02 AM 38.3558 -81.6436 340° North 194 223 36,000  Level Indianapolis Center
Tue 10:37:16 AM 38.3583 -81.6628 279° West 213 245 3,800 -29,419 Descending Indianapolis Center
Tue 10:38:04 AM 38.3897 -81.7056 313° West 245 282 5,600 2,564 Climbing Indianapolis Center
Tue 10:39:06 AM 38.4603 -81.7386 340° North 265 305 8,500 2,129 Climbing Indianapolis Center
Tue 10:40:08 AM 38.5408 -81.7739 341° North 265 305 10,000 1,597 Climbing Indianapolis Center
Tue 10:41:10 AM 38.6164 -81.8058 342° North 278 320 11,800 2,129 Climbing Indianapolis Center
Tue 10:42:00 AM 38.8851 -81.8175 340° North  Level FlightAware Approximate
Tue 10:42:12 AM 38.6911 -81.8383 341° North 280 322 14,400  Level Indianapolis Center
Tue 10:43:14 AM 38.7658 -81.8706 341° North 280 322 16,700 2,032 Climbing Indianapolis Center
Tue 10:44:16 AM 38.8453 -81.9036 342° North 294 338 18,600 1,984 Climbing Indianapolis Center
Tue 10:45:18 AM 38.9347 -81.9436 341° North 316 364 20,800 2,032 Climbing Indianapolis Center
Tue 10:46:20 AM 39.0208 -81.9814 341° North 323 372 22,800 1,935 Climbing Indianapolis Center
Tue 10:47:22 AM 39.1100 -82.0203 341° North 334 384 24,800 2,129 Climbing Indianapolis Center
Tue 10:48:24 AM 39.2161 -82.0661 341° North 334 384 27,200 2,112 Climbing Indianapolis Center
Tue 10:49:27 AM 39.3061 -82.1036 342° North 335 386 29,200 1,824 Climbing Indianapolis Center
Tue 10:50:29 AM 39.3928 -82.1428 341° North 335 386 31,000 1,597 Climbing Indianapolis Center
Tue 10:51:31 AM 39.4847 -82.1814 342° North 341 392 32,500 1,403 Climbing Indianapolis Center
Tue 10:52:33 AM 39.5769 -82.2239 340° North 349 402 33,900 1,161 Climbing Indianapolis Center
Tue 10:53:35 AM 39.6731 -82.2658 341° North 359 413 34,900 1,016 Climbing Indianapolis Center
Tue 10:54:37 AM 39.7869 -82.3153 342° North 360 414 36,000 532 Climbing Indianapolis Center
Tue 10:55:39 AM 39.8842 -82.3594 341° North 367 422 36,000  Level Indianapolis Center
Tue 10:56:41 AM 39.9886 -82.4044 342° North 388 447 36,000  Level Indianapolis Center
Tue 10:57:43 AM 40.0925 -82.4528 340° North 395 455 36,000  Level Indianapolis Center
Tue 10:58:45 AM 40.1975 -82.4983 342° North 395 455 36,000  Level Indianapolis Center
Tue 10:59:47 AM 40.3169 -82.5536 341° North 396 456 36,000  Level Indianapolis Center
Tue 11:00:49 AM 40.4244 -82.6003 342° North 398 458 36,000 -290 Level Indianapolis Center
Tue 11:01:51 AM 40.5317 -82.6489 341° North 399 459 35,400 -677 Descending Indianapolis Center
Tue 11:02:53 AM 40.6411 -82.6981 341° North 404 465 34,600 -677 Descending Indianapolis Center
Tue 11:03:55 AM 40.7500 -82.7486 341° North 406 467 34,000 -290 Descending Indianapolis Center
Tue 11:04:57 AM 40.8594 -82.7983 341° North 410 472 34,000  Level Indianapolis Center
Tue 11:05:59 AM 40.9869 -82.8553 341° North 410 472 34,000  Level Indianapolis Center
Tue 11:07:01 AM 41.0956 -82.9061 341° North 410 472 34,000  Level Indianapolis Center
Tue 11:08:03 AM 41.2072 -82.9558 341° North 413 475 34,000  Level Indianapolis Center
Tue 11:09:05 AM 41.3172 -83.0103 340° North 414 476 34,000 -484 Level Indianapolis Center
Tue 11:10:07 AM 41.4275 -83.0597 341° North 414 476 33,000 -1,161 Descending Indianapolis Center
Tue 11:11:09 AM 41.5369 -83.1108 341° North 414 476 31,600 -1,250 Descending Indianapolis Center
Tue 11:12:31 AM 41.6906 -83.1850 340° North 412 474 30,000 -667 Descending Cleveland Center
Tue 11:13:33 AM 41.8000 -83.2336 342° North 412 474 30,000  Level Cleveland Center
Tue 11:14:34 AM 41.9008 -83.2847 339° North 412 474 30,000  Level Cleveland Center
Tue 11:15:36 AM 42.0333 -83.3458 341° North 421 484 30,000  Level Cleveland Center
Tue 11:16:37 AM 42.1481 -83.4014 340° North 428 493 30,000 -98 Level Cleveland Center
Tue 11:17:39 AM 42.2636 -83.4558 341° North 430 495 29,800 -927 Descending Cleveland Center
Tue 11:18:40 AM 42.3722 -83.5069 341° North 420 483 28,100 -1,756 Descending Cleveland Center
Tue 11:19:42 AM 42.4697 -83.5556 340° North 404 465 26,200 -1,756 Descending Cleveland Center
Tue 11:20:43 AM 42.5722 -83.6042 341° North 396 456 24,500 -1,073 Descending Cleveland Center
Tue 11:21:45 AM 42.6692 -83.6528 340° North 379 436 24,000 -732 Descending Cleveland Center
Tue 11:22:46 AM 42.7656 -83.6981 341° North 374 430 23,000 -1,951 Descending Cleveland Center
Tue 11:23:48 AM 42.8756 -83.7547 339° North 358 412 20,000 -2,829 Descending Cleveland Center
Tue 11:24:49 AM 42.9672 -83.7964 342° North 353 406 17,200 -2,634 Descending Cleveland Center
Tue 11:25:51 AM 43.0544 -83.8422 339° North 344 396 14,600 -2,439 Descending Cleveland Center
Tue 11:26:52 AM 43.1408 -83.8831 341° North 335 386 12,200 -2,439 Descending Cleveland Center
Tue 11:27:54 AM 43.2272 -83.9261 340° North 314 361 9,600 -2,293 Descending Cleveland Center
Tue 11:28:55 AM 43.3117 -83.9394 353° North 297 342 7,500 -1,918 Descending Cleveland Center
Tue 11:29:56 AM 43.3883 -83.9422 358° North 268 308 5,700 -1,659 Descending Cleveland Center
Tue 11:30:58 AM 43.4617 -83.9458 358° North 252 290 4,100 -1,463 Descending Cleveland Center
Tue 11:31:59 AM 43.5289 -83.9486 358° North 233 268 2,700 -976 Descending Cleveland Center
Tue 11:33:01 AM 43.5750 -83.9664 344° North 165 190 2,100 -488 Descending Cleveland Center
Tue 11:34:02 AM 43.5783 -84.0097 276° West 103 119 1,700 -390 Descending Cleveland Center
Tue 11:35:04 AM 43.5614 -84.0419 234° Southwest 103 119 1,300 -488 Descending Cleveland Center
Tue 11:36:05 AM 43.5422 -84.0678 224° Southwest 96 110 700 -590 Descending Cleveland Center

Login

Don't have an account? Register now (free) for customized features, flight alerts, and more!